createdAt,value
2023-04-25T00:01:39.010Z,1.63
2023-04-25T00:04:07.644Z,2.00
2023-04-25T00:06:37.152Z,1.80
2023-04-25T00:09:08.104Z,1.97
2023-04-25T00:11:36.093Z,1.50
2023-04-25T00:14:03.947Z,1.63
2023-04-25T00:16:35.810Z,1.80
2023-04-25T00:19:04.437Z,1.73
2023-04-25T00:21:33.552Z,2.00
2023-04-25T00:24:02.052Z,1.70
2023-04-25T00:26:29.900Z,1.90
2023-04-25T00:28:57.891Z,1.60
2023-04-25T00:31:25.846Z,1.83
2023-04-25T00:33:55.222Z,2.27
2023-04-25T00:36:23.300Z,1.83
2023-04-25T00:38:51.277Z,2.03
2023-04-25T00:41:19.251Z,1.87
2023-04-25T00:43:48.256Z,1.93
2023-04-25T00:46:16.171Z,1.97
2023-04-25T00:48:44.139Z,1.67
2023-04-25T00:51:17.120Z,1.73
2023-04-25T00:53:45.373Z,1.73
2023-04-25T00:56:13.326Z,2.00
2023-04-25T00:58:43.407Z,2.30
2023-04-25T01:01:12.706Z,2.20
2023-04-25T01:03:42.843Z,1.93
2023-04-25T01:06:13.010Z,2.20
2023-04-25T01:08:41.595Z,2.40
2023-04-25T01:11:09.979Z,2.07
2023-04-25T01:13:38.046Z,2.00
2023-04-25T01:16:06.625Z,2.03
2023-04-25T01:18:34.950Z,2.30
2023-04-25T01:21:11.634Z,2.20
2023-04-25T01:23:40.996Z,2.47
2023-04-25T01:26:10.624Z,2.00
2023-04-25T01:28:40.533Z,2.00
2023-04-25T01:31:08.816Z,2.10
2023-04-25T01:33:37.220Z,2.20
2023-04-25T01:36:06.450Z,2.30
2023-04-25T01:38:37.961Z,2.03
2023-04-25T01:41:07.092Z,1.83
2023-04-25T01:43:35.218Z,2.50
2023-04-25T01:46:03.630Z,2.30
2023-04-25T01:48:31.593Z,2.33
2023-04-25T01:50:59.949Z,2.10
2023-04-25T01:53:28.018Z,2.17
2023-04-25T01:55:57.374Z,1.90
2023-04-25T01:58:27.710Z,1.87
2023-04-25T02:01:05.658Z,1.97
2023-04-25T02:03:41.656Z,1.70
2023-04-25T02:06:16.463Z,2.07
2023-04-25T02:08:46.959Z,1.80
2023-04-25T02:11:17.187Z,1.60
2023-04-25T02:14:03.623Z,1.50
2023-04-25T02:16:44.695Z,1.63
2023-04-25T02:19:12.915Z,1.87
2023-04-25T02:21:41.354Z,1.50
2023-04-25T02:24:10.178Z,1.70
2023-04-25T02:26:39.598Z,1.70
2023-04-25T02:29:10.117Z,1.70
2023-04-25T02:31:38.040Z,1.57
2023-04-25T02:34:06.388Z,1.60
2023-04-25T02:36:37.268Z,1.73
2023-04-25T02:39:05.260Z,1.60
2023-04-25T02:41:33.176Z,1.63
2023-04-25T02:44:02.396Z,1.50
2023-04-25T02:46:38.937Z,1.73
2023-04-25T02:49:08.013Z,1.43
2023-04-25T02:51:36.825Z,1.80
2023-04-25T02:54:05.356Z,1.80
2023-04-25T02:56:37.586Z,1.33
2023-04-25T02:59:11.153Z,1.60
2023-04-25T03:01:39.030Z,1.53
2023-04-25T03:04:06.901Z,1.60
2023-04-25T03:06:34.927Z,1.77
2023-04-25T03:09:02.834Z,1.67
2023-04-25T03:11:30.745Z,2.10
2023-04-25T03:13:58.625Z,1.60
2023-04-25T03:16:27.974Z,1.70
2023-04-25T03:18:56.649Z,1.70
2023-04-25T03:21:24.487Z,1.77
2023-04-25T03:23:53.075Z,1.80
2023-04-25T03:26:21.622Z,2.10
2023-04-25T03:28:50.261Z,1.53
2023-04-25T03:31:18.358Z,2.00
2023-04-25T03:33:48.030Z,1.90
2023-04-25T03:36:16.444Z,2.27
2023-04-25T03:38:44.458Z,2.20
2023-04-25T03:41:15.240Z,2.20
2023-04-25T03:43:46.625Z,1.90
2023-04-25T03:46:15.630Z,1.90
2023-04-25T03:48:44.266Z,2.07
2023-04-25T03:51:21.008Z,1.93
2023-04-25T03:53:49.793Z,2.53
2023-04-25T03:56:21.125Z,2.10
2023-04-25T03:58:54.664Z,2.60
2023-04-25T04:01:25.078Z,2.77
2023-04-25T04:03:54.529Z,2.67
2023-04-25T04:06:24.119Z,2.43
2023-04-25T04:08:58.188Z,2.27
2023-04-25T04:11:26.248Z,2.53
2023-04-25T04:13:54.091Z,2.77
2023-04-25T04:16:22.323Z,2.73
2023-04-25T04:18:50.971Z,2.70
2023-04-25T04:21:18.805Z,3.23
2023-04-25T04:23:49.271Z,5.00
2023-04-25T04:26:18.106Z,3.20
2023-04-25T04:28:55.340Z,2.80
2023-04-25T04:31:43.575Z,5.90
2023-04-25T04:34:12.635Z,4.30
2023-04-25T04:36:42.336Z,3.47
2023-04-25T04:39:11.729Z,2.80
2023-04-25T04:41:49.727Z,2.40
2023-04-25T04:44:35.429Z,2.20
2023-04-25T04:47:13.665Z,3.53
2023-04-25T04:50:05.086Z,3.80
2023-04-25T04:53:02.078Z,3.37
2023-04-25T04:56:09.936Z,3.17
2023-04-25T04:58:52.185Z,2.77
2023-04-25T05:01:36.833Z,3.03
2023-04-25T05:04:16.070Z,3.30
2023-04-25T05:06:48.830Z,3.10
2023-04-25T05:09:39.869Z,3.10
2023-04-25T05:12:27.955Z,2.70
2023-04-25T05:15:13.875Z,2.90
2023-04-25T05:18:00.034Z,2.83
2023-04-25T05:20:46.587Z,3.13
2023-04-25T05:23:28.820Z,3.13
2023-04-25T05:26:14.966Z,2.93
2023-04-25T05:29:10.740Z,2.93
2023-04-25T05:31:48.652Z,3.33
2023-04-25T05:34:18.552Z,3.30
2023-04-25T05:36:58.767Z,2.97
2023-04-25T05:39:27.188Z,2.93
2023-04-25T05:41:55.169Z,3.30
2023-04-25T05:44:46.982Z,3.43
2023-04-25T05:47:47.109Z,3.50
2023-04-25T05:50:20.317Z,3.10
2023-04-25T05:53:03.590Z,2.90
2023-04-25T05:55:39.863Z,2.77
2023-04-25T05:58:21.377Z,3.60
2023-04-25T06:00:51.189Z,3.40
2023-04-25T06:03:20.910Z,3.27
2023-04-25T06:05:50.331Z,3.13
2023-04-25T06:08:18.266Z,3.00
2023-04-25T06:10:46.084Z,3.73
2023-04-25T06:13:13.889Z,3.00
2023-04-25T06:15:42.379Z,3.43
2023-04-25T06:18:11.628Z,3.73
2023-04-25T06:20:40.139Z,3.27
2023-04-25T06:23:08.619Z,3.40
2023-04-25T06:25:50.203Z,3.40
2023-04-25T06:28:18.265Z,3.50
2023-04-25T06:30:46.338Z,4.10
2023-04-25T06:33:20.236Z,3.63
2023-04-25T06:35:48.511Z,3.83
2023-04-25T06:38:19.705Z,3.90
2023-04-25T06:40:50.688Z,3.90
2023-04-25T06:43:19.643Z,3.77
2023-04-25T06:46:05.904Z,3.53
2023-04-25T06:48:41.655Z,3.63
2023-04-25T06:51:09.471Z,4.07
2023-04-25T06:53:38.698Z,3.40
2023-04-25T06:56:09.395Z,4.30
2023-04-25T06:58:47.176Z,3.70
2023-04-25T07:01:33.282Z,3.23
2023-04-25T07:04:06.256Z,3.30
2023-04-25T07:06:39.083Z,3.63
2023-04-25T07:09:07.378Z,3.87
2023-04-25T07:11:35.289Z,3.67
2023-04-25T07:14:03.141Z,4.50
2023-04-25T07:16:31.403Z,4.20
2023-04-25T07:19:00.928Z,4.00
2023-04-25T07:21:31.930Z,4.20
2023-04-25T07:24:03.013Z,4.70
2023-04-25T07:26:35.620Z,4.20
2023-04-25T07:29:19.111Z,3.90
2023-04-25T07:31:46.955Z,3.40
2023-04-25T07:34:14.798Z,4.20
2023-04-25T07:36:46.085Z,3.93
2023-04-25T07:39:14.199Z,3.27
2023-04-25T07:41:42.415Z,3.77
2023-04-25T07:44:15.056Z,3.43
2023-04-25T07:46:42.957Z,3.60
2023-04-25T07:49:11.381Z,3.23
2023-04-25T07:51:42.078Z,3.27
2023-04-25T07:54:16.324Z,3.27
2023-04-25T07:56:53.473Z,3.43
2023-04-25T07:59:24.403Z,3.50
2023-04-25T08:01:52.690Z,3.67
2023-04-25T08:04:21.876Z,3.70
2023-04-25T08:06:55.450Z,4.10
2023-04-25T08:09:28.373Z,3.37
2023-04-25T08:11:57.533Z,4.23
2023-04-25T08:14:36.328Z,3.27
2023-04-25T08:17:06.654Z,3.50
2023-04-25T08:19:38.987Z,3.30
2023-04-25T08:22:08.561Z,3.23
2023-04-25T08:24:48.870Z,3.33
2023-04-25T08:27:19.925Z,4.00
2023-04-25T08:29:47.889Z,3.47
2023-04-25T08:32:16.184Z,4.07
2023-04-25T08:34:56.508Z,3.50
2023-04-25T08:37:24.497Z,3.40
2023-04-25T08:40:00.433Z,3.73
2023-04-25T08:42:49.201Z,4.40
2023-04-25T08:45:17.236Z,4.03
2023-04-25T08:47:49.772Z,3.87
2023-04-25T08:50:20.532Z,3.87
2023-04-25T08:52:50.491Z,3.80
2023-04-25T08:55:20.472Z,4.20
2023-04-25T08:57:51.656Z,4.13
2023-04-25T09:00:20.813Z,4.23
2023-04-25T09:02:49.551Z,4.03
2023-04-25T09:05:19.482Z,4.13
2023-04-25T09:07:50.686Z,3.93
2023-04-25T09:10:20.538Z,4.03
2023-04-25T09:13:04.512Z,4.10
2023-04-25T09:15:34.093Z,4.10
2023-04-25T09:18:11.874Z,3.60
2023-04-25T09:21:00.753Z,3.97
2023-04-25T09:23:33.977Z,3.90
2023-04-25T09:26:03.181Z,3.20
2023-04-25T09:28:31.264Z,3.30
2023-04-25T09:31:02.312Z,2.80
2023-04-25T09:33:39.944Z,3.00
2023-04-25T09:36:12.201Z,2.23
2023-04-25T09:38:58.050Z,1.93
2023-04-25T09:41:31.547Z,1.80
2023-04-25T09:44:03.719Z,1.30
2023-04-25T09:46:37.395Z,1.00
2023-04-25T09:49:09.477Z,1.10
2023-04-25T09:51:56.392Z,0.80
2023-04-25T09:54:25.332Z,1.27
2023-04-25T09:57:11.946Z,0.97
2023-04-25T09:59:41.694Z,0.90
2023-04-25T10:02:11.495Z,1.00
2023-04-25T10:04:41.154Z,0.90
2023-04-25T10:07:26.965Z,0.83
2023-04-25T10:10:01.666Z,0.87
2023-04-25T10:12:32.024Z,0.50
2023-04-25T10:15:01.449Z,0.60
2023-04-25T10:17:30.054Z,0.70
2023-04-25T10:19:59.679Z,0.60
2023-04-25T10:22:33.162Z,0.40
2023-04-25T10:25:01.361Z,0.30
2023-04-25T10:27:31.172Z,0.40
2023-04-25T10:30:13.500Z,0.30
2023-04-25T10:32:41.404Z,0.33
2023-04-25T10:35:14.051Z,0.50
2023-04-25T10:38:00.360Z,0.60
2023-04-25T10:40:28.567Z,0.40
2023-04-25T10:42:58.013Z,0.50
2023-04-25T10:45:25.868Z,0.40
2023-04-25T10:47:53.878Z,0.20
2023-04-25T10:50:21.739Z,0.33
2023-04-25T10:52:49.895Z,0.33
2023-04-25T10:55:17.724Z,0.43
2023-04-25T10:57:49.378Z,0.37
2023-04-25T11:00:20.076Z,0.50
2023-04-25T11:02:49.670Z,0.40
2023-04-25T11:05:36.314Z,0.40
2023-04-25T11:08:13.077Z,0.40
2023-04-25T11:10:42.178Z,0.60
2023-04-25T11:13:10.090Z,0.33
2023-04-25T11:15:39.331Z,0.40
2023-04-25T11:18:09.409Z,0.40
2023-04-25T11:20:37.315Z,1.80
2023-04-25T11:23:06.412Z,1.60
2023-04-25T11:25:35.538Z,2.10
2023-04-25T11:28:06.475Z,1.90
2023-04-25T11:30:34.730Z,2.10
2023-04-25T11:33:04.849Z,1.87
2023-04-25T11:35:34.486Z,2.10
2023-04-25T11:38:03.405Z,6.07
2023-04-25T11:40:32.439Z,9.53
2023-04-25T11:43:02.503Z,5.10
2023-04-25T11:45:31.724Z,2.20
2023-04-25T11:47:59.779Z,4.53
2023-04-25T11:50:30.485Z,2.80
2023-04-25T11:52:58.923Z,5.30
2023-04-25T11:55:26.845Z,4.90
2023-04-25T11:57:54.749Z,1.93
2023-04-25T12:00:23.957Z,2.67
2023-04-25T12:02:54.932Z,3.17
2023-04-25T12:05:32.549Z,2.63
2023-04-25T12:08:12.071Z,3.13
2023-04-25T12:10:41.860Z,2.47
2023-04-25T12:13:23.412Z,2.00
2023-04-25T12:15:51.449Z,2.50
2023-04-25T12:18:21.802Z,3.53
2023-04-25T12:20:49.651Z,3.90
2023-04-25T12:23:19.263Z,3.40
2023-04-25T12:25:48.183Z,3.60
2023-04-25T12:28:20.588Z,4.20
2023-04-25T12:30:59.459Z,3.93
2023-04-25T12:33:28.420Z,3.60
2023-04-25T12:35:57.200Z,3.90
2023-04-25T12:38:27.873Z,3.70
2023-04-25T12:40:56.100Z,3.70
2023-04-25T12:43:24.241Z,4.10
2023-04-25T12:45:52.763Z,3.73
2023-04-25T12:48:21.231Z,5.00
2023-04-25T12:50:50.554Z,4.70
2023-04-25T12:53:18.518Z,4.33
2023-04-25T12:55:48.252Z,3.73
2023-04-25T12:58:16.292Z,4.20
2023-04-25T13:00:44.368Z,4.53
2023-04-25T13:03:13.437Z,4.53
2023-04-25T13:05:42.319Z,4.53
2023-04-25T13:08:10.292Z,4.67
2023-04-25T13:10:40.373Z,5.07
2023-04-25T13:13:09.725Z,5.40
2023-04-25T13:15:37.664Z,5.10
2023-04-25T13:18:06.469Z,4.63
2023-04-25T13:20:34.489Z,4.67
2023-04-25T13:23:03.184Z,4.73
2023-04-25T13:25:31.195Z,4.67
2023-04-25T13:27:59.137Z,4.53
2023-04-25T13:30:28.630Z,4.40
2023-04-25T13:32:58.100Z,4.93
2023-04-25T13:35:26.743Z,5.50
2023-04-25T13:37:54.634Z,4.93
2023-04-25T13:40:24.689Z,5.17
2023-04-25T13:42:53.605Z,4.90
2023-04-25T13:45:21.644Z,5.40
2023-04-25T13:47:51.006Z,5.70
2023-04-25T13:50:19.263Z,6.10
2023-04-25T13:52:47.081Z,5.83
2023-04-25T13:55:14.952Z,6.20
2023-04-25T13:57:43.002Z,5.97
2023-04-25T14:00:11.962Z,5.23
2023-04-25T14:02:40.486Z,5.67
2023-04-25T14:05:10.709Z,6.03
2023-04-25T14:07:39.370Z,5.53
2023-04-25T14:10:08.115Z,4.97
2023-04-25T14:12:36.242Z,5.07
2023-04-25T14:15:04.710Z,5.20
2023-04-25T14:17:32.615Z,4.93
2023-04-25T14:20:00.479Z,4.07
2023-04-25T14:22:29.734Z,4.40
2023-04-25T14:24:57.544Z,4.67
2023-04-25T14:27:28.598Z,3.83
2023-04-25T14:29:57.005Z,4.20
2023-04-25T14:32:24.826Z,5.00
2023-04-25T14:34:52.606Z,4.53
2023-04-25T14:37:20.542Z,4.20
2023-04-25T14:39:49.732Z,4.50
2023-04-25T14:42:17.635Z,4.60
2023-04-25T14:44:46.040Z,4.10
2023-04-25T14:47:13.972Z,3.70
2023-04-25T14:49:41.950Z,3.03
2023-04-25T14:52:09.808Z,3.20
2023-04-25T14:54:37.675Z,3.13
2023-04-25T14:57:07.331Z,3.23
2023-04-25T14:59:35.175Z,3.80
2023-04-25T15:02:03.024Z,2.77
2023-04-25T15:04:32.021Z,2.53
2023-04-25T15:07:00.181Z,2.33
2023-04-25T15:09:29.650Z,2.20
2023-04-25T15:11:57.788Z,2.30
2023-04-25T15:14:27.041Z,2.20
2023-04-25T15:16:54.983Z,2.00
2023-04-25T15:19:22.962Z,2.10
2023-04-25T15:21:50.929Z,2.67
2023-04-25T15:24:19.084Z,1.90
2023-04-25T15:26:47.460Z,2.43
2023-04-25T15:29:15.462Z,2.27
2023-04-25T15:31:44.954Z,2.70
2023-04-25T15:34:13.016Z,2.40
2023-04-25T15:36:41.026Z,2.80
2023-04-25T15:39:09.033Z,2.40
2023-04-25T15:41:38.250Z,2.80
2023-04-25T15:44:07.902Z,3.00
2023-04-25T15:46:35.825Z,3.37
2023-04-25T15:49:05.035Z,3.67
2023-04-25T15:51:33.595Z,3.40
2023-04-25T15:54:02.688Z,3.40
2023-04-25T15:56:30.770Z,2.97
2023-04-25T15:58:58.721Z,2.90
2023-04-25T16:01:30.706Z,3.10
2023-04-25T16:03:59.607Z,3.57
2023-04-25T16:06:29.182Z,2.90
2023-04-25T16:08:57.546Z,3.27
2023-04-25T16:11:29.992Z,3.00
2023-04-25T16:13:58.034Z,3.23
2023-04-25T16:16:26.435Z,3.20
2023-04-25T16:18:54.397Z,3.77
2023-04-25T16:21:22.256Z,3.60
2023-04-25T16:23:51.788Z,3.60
2023-04-25T16:26:19.808Z,3.50
2023-04-25T16:28:47.682Z,3.60
2023-04-25T16:31:16.846Z,3.47
2023-04-25T16:33:45.076Z,3.20
2023-04-25T16:36:13.469Z,4.03
2023-04-25T16:38:41.428Z,3.93
2023-04-25T16:41:11.686Z,3.87
2023-04-25T16:43:40.581Z,4.83
2023-04-25T16:46:08.449Z,4.07
2023-04-25T16:48:36.354Z,4.33
2023-04-25T16:51:04.300Z,4.10
2023-04-25T16:53:33.101Z,4.33
2023-04-25T16:56:00.987Z,4.60
2023-04-25T16:58:30.210Z,4.70
2023-04-25T17:00:58.098Z,4.23
2023-04-25T17:03:26.910Z,4.07
2023-04-25T17:05:57.437Z,4.60
2023-04-25T17:08:25.519Z,5.43
2023-04-25T17:10:53.682Z,4.37
2023-04-25T17:13:21.736Z,4.80
2023-04-25T17:16:00.973Z,5.63
2023-04-25T17:18:29.210Z,4.20
2023-04-25T17:20:57.102Z,4.20
2023-04-25T17:23:25.036Z,4.30
2023-04-25T17:25:53.453Z,4.80
2023-04-25T17:28:21.394Z,4.47
2023-04-25T17:30:49.230Z,4.23
2023-04-25T17:33:18.555Z,4.07
2023-04-25T17:35:47.482Z,4.30
2023-04-25T17:38:15.310Z,4.27
2023-04-25T17:40:43.274Z,4.97
2023-04-25T17:43:11.140Z,5.00
2023-04-25T17:45:38.956Z,4.20
2023-04-25T17:48:06.958Z,4.27
2023-04-25T17:50:36.465Z,4.37
2023-04-25T17:53:04.872Z,4.50
2023-04-25T17:55:32.805Z,3.93
2023-04-25T17:58:00.761Z,3.27
2023-04-25T18:00:28.877Z,3.50
2023-04-25T18:02:57.376Z,3.90
2023-04-25T18:05:25.351Z,3.70
2023-04-25T18:07:54.629Z,3.50
2023-04-25T18:10:22.603Z,4.00
2023-04-25T18:12:51.475Z,3.67
2023-04-25T18:15:19.346Z,4.40
2023-04-25T18:17:47.267Z,3.73
2023-04-25T18:20:16.545Z,3.57
2023-04-25T18:22:46.073Z,3.47
2023-04-25T18:25:16.314Z,3.87
2023-04-25T18:27:45.575Z,3.20
2023-04-25T18:30:14.624Z,3.93
2023-04-25T18:32:43.263Z,3.73
2023-04-25T18:35:12.217Z,3.80
2023-04-25T18:37:42.194Z,3.83
2023-04-25T18:40:14.004Z,3.73
2023-04-25T18:42:43.995Z,4.00
2023-04-25T18:45:12.876Z,3.50
2023-04-25T18:47:40.827Z,3.30
2023-04-25T18:50:09.754Z,3.50
2023-04-25T18:52:38.245Z,3.20
2023-04-25T18:55:07.375Z,3.17
2023-04-25T18:57:35.196Z,3.60
2023-04-25T19:00:06.861Z,3.80
2023-04-25T19:02:37.006Z,3.67
2023-04-25T19:05:05.676Z,3.40
2023-04-25T19:07:33.737Z,3.57
2023-04-25T19:10:01.561Z,3.80
2023-04-25T19:12:29.443Z,4.53
2023-04-25T19:14:57.338Z,4.37
2023-04-25T19:17:28.964Z,3.80
2023-04-25T19:19:58.011Z,4.20
2023-04-25T19:22:26.265Z,3.80
2023-04-25T19:25:02.930Z,8.30
2023-04-25T19:27:38.374Z,7.63
2023-04-25T19:30:08.863Z,7.97
2023-04-25T19:32:38.517Z,6.53
2023-04-25T19:35:11.403Z,4.17
2023-04-25T19:37:45.746Z,4.10
2023-04-25T19:40:14.821Z,3.90
2023-04-25T19:42:42.790Z,3.60
2023-04-25T19:45:11.921Z,4.50
2023-04-25T19:47:42.062Z,4.60
2023-04-25T19:50:11.043Z,4.10
2023-04-25T19:52:39.923Z,4.50
2023-04-25T19:55:10.187Z,4.10
2023-04-25T19:57:38.690Z,3.97
2023-04-25T20:00:10.763Z,3.90
2023-04-25T20:02:45.138Z,3.20
2023-04-25T20:05:15.577Z,3.17
2023-04-25T20:07:43.729Z,3.10
2023-04-25T20:10:14.041Z,3.07
2023-04-25T20:12:42.245Z,3.07
2023-04-25T20:15:11.791Z,3.57
2023-04-25T20:17:40.230Z,3.40
2023-04-25T20:20:11.352Z,3.80
2023-04-25T20:22:40.523Z,3.67
2023-04-25T20:25:10.758Z,4.10
2023-04-25T20:27:38.891Z,4.03
2023-04-25T20:30:08.449Z,4.17
2023-04-25T20:32:36.556Z,4.33
2023-04-25T20:35:06.138Z,3.63
2023-04-25T20:37:35.938Z,4.23
2023-04-25T20:40:06.715Z,4.63
2023-04-25T20:42:34.570Z,4.33
2023-04-25T20:45:04.547Z,4.50
2023-04-25T20:47:33.311Z,4.83
2023-04-25T20:50:03.845Z,4.37
2023-04-25T20:52:31.900Z,4.77
2023-04-25T20:55:01.103Z,4.50
2023-04-25T20:57:29.218Z,5.00
2023-04-25T20:59:57.345Z,5.50
2023-04-25T21:02:25.426Z,5.50
2023-04-25T21:04:53.370Z,4.60
2023-04-25T21:07:21.162Z,5.17
2023-04-25T21:09:49.013Z,4.97
2023-04-25T21:12:18.183Z,4.90
2023-04-25T21:14:46.005Z,5.00
2023-04-25T21:17:13.973Z,4.73
2023-04-25T21:19:42.234Z,4.80
2023-04-25T21:22:10.190Z,5.00
2023-04-25T21:24:38.232Z,4.40
2023-04-25T21:27:06.026Z,5.00
2023-04-25T21:29:35.274Z,4.03
2023-04-25T21:32:03.592Z,3.93
2023-04-25T21:34:31.407Z,3.77
2023-04-25T21:36:59.227Z,5.00
2023-04-25T21:39:27.219Z,6.03
2023-04-25T21:41:56.029Z,5.30
2023-04-25T21:44:23.911Z,4.90
2023-04-25T21:46:53.218Z,4.13
2023-04-25T21:49:23.382Z,4.73
2023-04-25T21:51:51.250Z,4.77
2023-04-25T21:54:19.108Z,4.63
2023-04-25T21:56:46.873Z,4.23
2023-04-25T21:59:14.729Z,4.20
2023-04-25T22:01:42.780Z,4.17
2023-04-25T22:04:12.428Z,3.97
2023-04-25T22:06:40.476Z,3.63
2023-04-25T22:09:08.390Z,4.03
2023-04-25T22:11:36.718Z,4.47
2023-04-25T22:14:05.035Z,4.37
2023-04-25T22:16:33.552Z,4.07
2023-04-25T22:19:01.555Z,4.03
2023-04-25T22:21:30.821Z,4.57
2023-04-25T22:24:00.184Z,4.23
2023-04-25T22:26:28.254Z,4.57
2023-04-25T22:28:56.054Z,4.80
2023-04-25T22:31:23.993Z,4.60
2023-04-25T22:33:51.887Z,4.60
2023-04-25T22:36:19.785Z,5.10
2023-04-25T22:38:49.109Z,5.20
2023-04-25T22:41:17.308Z,5.20
2023-04-25T22:43:45.184Z,4.93
2023-04-25T22:46:17.191Z,5.43
2023-04-25T22:48:45.576Z,5.40
2023-04-25T22:51:13.680Z,5.40
2023-04-25T22:53:42.838Z,4.93
2023-04-25T22:56:13.040Z,5.63
2023-04-25T22:58:40.909Z,5.47
2023-04-25T23:01:08.923Z,5.53
2023-04-25T23:03:37.315Z,5.93
2023-04-25T23:06:06.026Z,5.23
2023-04-25T23:08:33.888Z,5.63
2023-04-25T23:11:01.840Z,4.87
2023-04-25T23:13:31.627Z,5.53
2023-04-25T23:16:06.074Z,5.47
2023-04-25T23:18:34.024Z,5.27
2023-04-25T23:21:02.241Z,5.10
2023-04-25T23:23:30.161Z,5.67
2023-04-25T23:25:58.733Z,5.90
2023-04-25T23:28:26.970Z,5.80
2023-04-25T23:30:56.294Z,5.93
2023-04-25T23:33:24.146Z,5.80
2023-04-25T23:35:52.050Z,6.00
2023-04-25T23:38:20.787Z,5.97
2023-04-25T23:40:48.693Z,6.40
2023-04-25T23:43:16.760Z,5.80
2023-04-25T23:45:46.508Z,5.80
2023-04-25T23:48:16.945Z,6.20
2023-04-25T23:50:44.810Z,5.13
2023-04-25T23:53:12.744Z,5.77
2023-04-25T23:55:40.738Z,6.33
2023-04-25T23:58:09.140Z,5.90
